Flight Track Log - Related Links

Times and Time Zones

All times are in EDT time to prevent confusion due to time zone crossing. See the SWA1910 flight status page for this flight to view local times or setup timezone preferences in your user account.

Time Position Orientation Groundspeed Altitude Reporting Facility
EDT Latitude Longitude Course Direction KTS MPH feet Rate Location/Type
Tue 02:05:55 PM 26.0750 -80.1367 86° East 153 176 900  Level Miami Center
Tue 02:07:02 PM 26.0783 -80.0767 86° East 207 238 2,900 1,828 Climbing Miami Center
Tue 02:08:03 PM 26.1050 -80.0103 66° East 271 312 4,800 2,459 Climbing Miami Center
Tue 02:09:04 PM 26.1442 -79.9281 62° Northeast 284 327 7,900 2,761 Climbing Miami Center
Tue 02:09:56 PM 26.1728 -79.8661 63° Northeast 329 379 10,000 2,036 Climbing Miami Center
Tue 02:10:56 PM 26.2119 -79.7792 63° Northeast 316 364 11,700 2,200 Climbing Miami Center
Tue 02:11:56 PM 26.2661 -79.6878 57° Northeast 327 376 14,400 2,900 Climbing Miami Center
Tue 02:12:56 PM 26.3225 -79.5803 60° Northeast 360 414 17,500 2,700 Climbing Miami Center
Tue 02:13:56 PM 26.3844 -79.5028 48° Northeast 372 428 19,800 2,300 Climbing Miami Center
Tue 02:14:56 PM 26.4983 -79.4381 27° Northeast 377 434 22,100 2,150 Climbing Miami Center
Tue 02:15:56 PM 26.6039 -79.3822 25° Northeast 404 465 24,100 2,000 Climbing Miami Center
Tue 02:16:56 PM 26.7028 -79.3308 25° Northeast 426 490 26,100 1,950 Climbing Miami Center
Tue 02:17:56 PM 26.8167 -79.2681 26° Northeast 431 496 28,000 1,600 Climbing Miami Center
Tue 02:18:56 PM 26.9325 -79.2075 25° Northeast 442 509 29,300 1,300 Climbing Miami Center
Tue 02:19:56 PM 27.0525 -79.1472 24° Northeast 454 522 30,600 1,700 Climbing Miami Center
Tue 02:20:56 PM 27.1686 -79.0794 27° Northeast 455 524 32,700 1,950 Climbing Miami Center
Tue 02:21:56 PM 27.2947 -79.0117 26° Northeast 460 529 34,500 1,650 Climbing Miami Center
Tue 02:22:56 PM 27.4125 -78.9531 24° Northeast 460 529 36,000 1,250 Climbing Miami Center
Tue 02:23:56 PM 27.5361 -78.9294 10° North 444 511 37,000 500 Climbing Miami Center
Tue 02:24:56 PM 27.6469 -78.9150 North 438 504 37,000 350 Level Miami Center
Tue 02:25:56 PM 27.7664 -78.8983 North 438 504 37,700 950 Climbing Miami Center
Tue 02:26:56 PM 27.8981 -78.8819 North 437 503 38,900 600 Climbing Miami Center
Tue 02:27:56 PM 28.0172 -78.8653 North 431 496 38,900  Level Miami Center
Tue 02:28:56 PM 28.1386 -78.8486 North 431 496 38,900  Level Miami Center
Tue 02:29:56 PM 28.2578 -78.8317 North 431 496 38,900  Level Miami Center
Tue 02:30:56 PM 28.3811 -78.8150 North 426 490 38,900  Level Miami Center
Tue 02:31:56 PM 28.5047 -78.7983 North 426 490 38,900  Level Miami Center
Tue 02:32:56 PM 28.6197 -78.7789 North 426 490 38,900  Level Miami Center
Tue 02:33:56 PM 28.7408 -78.7644 North 426 490 38,900  Level Miami Center
Tue 02:34:56 PM 28.8558 -78.7475 North 426 490 38,900  Level Miami Center
Tue 02:35:56 PM 28.9731 -78.7306 North 426 490 38,900  Level Miami Center
Tue 02:36:56 PM 29.0942 -78.7161 North 426 490 38,900  Level Miami Center
Tue 02:37:56 PM 29.2092 -78.6967 North 426 490 38,900  Level Miami Center
Tue 02:38:56 PM 29.3303 -78.6794 North 426 490 38,900  Level Miami Center
Tue 02:39:56 PM 29.4536 -78.6625 North 426 490 38,900  Level Miami Center
Tue 02:40:56 PM 29.5728 -78.6478 North 431 496 38,900  Level Miami Center
Tue 02:41:56 PM 29.6856 -78.6233 11° North 421 484 38,900  Level Miami Center
Tue 02:42:56 PM 29.8089 -78.6086 North 426 490 38,900  Level Miami Center
Tue 02:43:56 PM 29.9239 -78.5914 North 435 501 38,900  Level Miami Center
Tue 02:47:15 PM 30.3381 -78.5342 North 410 472 38,900  Level Jacksonville Center
Tue 02:48:15 PM 30.4564 -78.5167 North 436 502 38,900  Level Jacksonville Center
Tue 02:49:15 PM 30.5792 -78.4992 North 442 509 38,900  Level Jacksonville Center
Tue 02:50:15 PM 30.6931 -78.4792 North 435 501 38,900  Level Jacksonville Center
Tue 02:51:15 PM 30.8114 -78.4567 North 432 497 38,900  Level Jacksonville Center
Tue 02:52:15 PM 30.9361 -78.4389 North 435 501 38,900  Level Jacksonville Center
Tue 02:53:15 PM 31.0583 -78.4186 North 445 512 38,900  Level Jacksonville Center
Tue 02:54:15 PM 31.1789 -78.3983 North 440 506 38,900  Level Jacksonville Center
Tue 02:55:15 PM 31.2950 -78.3781 North 429 494 38,900  Level Jacksonville Center
Tue 02:56:15 PM 31.4172 -78.3550 North 429 494 38,900  Level Jacksonville Center
Tue 02:57:15 PM 31.5358 -78.3397 North 429 494 38,900  Level Jacksonville Center
Tue 02:58:15 PM 31.6581 -78.3189 North 428 493 38,900  Level Jacksonville Center
Tue 02:59:15 PM 31.7744 -78.3036 North 429 494 38,900  Level Jacksonville Center
Tue 03:00:15 PM 31.8967 -78.2803 North 429 494 38,900  Level Jacksonville Center
Tue 03:01:15 PM 32.0150 -78.2619 North 429 494 38,900  Level Jacksonville Center
Tue 03:02:15 PM 32.1353 -78.2414 North 429 494 38,900  Level Jacksonville Center
Tue 03:03:15 PM 32.2431 -78.2136 12° North 429 494 38,900  Level Jacksonville Center
Tue 03:04:15 PM 32.3636 -78.2003 North 429 494 38,900  Level Jacksonville Center
Tue 03:05:15 PM 32.4817 -78.1792 North 429 494 38,900  Level Jacksonville Center
Tue 03:06:15 PM 32.6000 -78.1633 North 424 488 38,900  Level Jacksonville Center
Tue 03:07:15 PM 32.7183 -78.1447 North 424 488 38,900  Level Jacksonville Center
Tue 03:08:15 PM 32.8342 -78.1214 10° North 424 488 38,900  Level Jacksonville Center
Tue 03:09:15 PM 32.9547 -78.1075 North 424 488 38,900  Level Jacksonville Center
Tue 03:10:15 PM 33.0731 -78.0864 North 424 488 38,900  Level Jacksonville Center
Tue 03:11:15 PM 33.1911 -78.0650 North 424 488 38,900  Level Jacksonville Center
Tue 03:12:15 PM 33.3114 -78.0461 North 424 488 38,900  Level Jacksonville Center
Tue 03:13:15 PM 33.4297 -78.0272 North 424 488 38,900  Level Jacksonville Center
Tue 03:13:31 PM 33.4608 -78.0236 North 437 503 38,900  Level Washington Center
Tue 03:14:31 PM 33.5800 -78.0044 North 442 509 38,900  Level Washington Center
Tue 03:15:31 PM 33.6994 -77.9856 North 442 509 38,900  Level Washington Center
Tue 03:16:31 PM 33.8186 -77.9639 North 442 509 38,900 50 Level Washington Center
Tue 03:17:31 PM 33.9422 -77.9450 North 434 499 39,000 50 Climbing Washington Center
Tue 03:18:31 PM 34.0594 -77.9231 North 434 499 39,000  Level Washington Center
Tue 03:19:31 PM 34.1789 -77.9014 North 429 494 39,000 -50 Level Washington Center
Tue 03:20:31 PM 34.3147 -77.8825 North 435 501 38,900 -50 Descending Washington Center
Tue 03:21:31 PM 34.4339 -77.8758 North 435 501 38,900  Level Washington Center
Tue 03:22:31 PM 34.5506 -77.8742 North 428 493 38,900  Level Washington Center
Tue 03:23:31 PM 34.6694 -77.8750 360° North 423 487 38,900  Level Washington Center
Tue 03:24:31 PM 34.7844 -77.8706 North 423 487 38,900 50 Level Washington Center
Tue 03:25:31 PM 34.9014 -77.8661 North 423 487 39,000 50 Climbing Washington Center
Tue 03:26:31 PM 35.0203 -77.8644 North 423 487 39,000  Level Washington Center
Tue 03:27:31 PM 35.1350 -77.8625 North 423 487 39,000  Level Washington Center
Tue 03:28:31 PM 35.2519 -77.8583 North 423 487 39,000  Level Washington Center
Tue 03:29:31 PM 35.3708 -77.8592 360° North 423 487 39,000  Level Washington Center
Tue 03:30:31 PM 35.4878 -77.8572 North 423 487 39,000  Level Washington Center
Tue 03:31:31 PM 35.6067 -77.8556 North 423 487 39,000  Level Washington Center
Tue 03:32:31 PM 35.7258 -77.8539 North 423 487 39,000  Level Washington Center
Tue 03:33:31 PM 35.8447 -77.8547 360° North 423 487 39,000  Level Washington Center
Tue 03:34:31 PM 35.9636 -77.8528 North 423 487 39,000  Level Washington Center
Tue 03:35:31 PM 36.0825 -77.8511 North 423 487 39,000  Level Washington Center
Tue 03:36:31 PM 36.2036 -77.8469 North 423 487 39,000  Level Washington Center
Tue 03:37:31 PM 36.3228 -77.8453 North 423 487 39,000  Level Washington Center
Tue 03:38:31 PM 36.4375 -77.8483 359° North 418 481 39,000  Level Washington Center
Tue 03:39:31 PM 36.5564 -77.8442 North 418 481 39,000  Level Washington Center
Tue 03:40:31 PM 36.6753 -77.8450 360° North 418 481 39,000  Level Washington Center
Tue 03:41:31 PM 36.7942 -77.8433 North 423 487 39,000  Level Washington Center
Tue 03:42:31 PM 36.9133 -77.8389 North 423 487 39,000  Level Washington Center
Tue 03:43:31 PM 37.0300 -77.8397 360° North 423 487 39,000  Level Washington Center
Tue 03:44:31 PM 37.1511 -77.8356 North 423 487 39,000  Level Washington Center
Tue 03:45:31 PM 37.2681 -77.8336 North 423 487 39,000  Level Washington Center
Tue 03:46:31 PM 37.3847 -77.8344 360° North 423 487 39,000  Level Washington Center
Tue 03:47:31 PM 37.5036 -77.8300 North 423 487 39,000  Level Washington Center
Tue 03:48:31 PM 37.6158 -77.8544 350° North 418 481 39,000  Level Washington Center
Tue 03:49:31 PM 37.7281 -77.8839 348° North 413 475 39,000  Level Washington Center
Tue 03:50:31 PM 37.8400 -77.9164 347° North 408 470 39,000  Level Washington Center
Tue 03:51:31 PM 37.9519 -77.9461 348° North 408 470 39,000  Level Washington Center
Tue 03:52:31 PM 38.0661 -77.9761 348° North 413 475 39,000  Level Washington Center
Tue 03:53:31 PM 38.1697 -78.0058 347° North 413 475 39,000  Level Washington Center
Tue 03:54:31 PM 38.2942 -78.0414 347° North 413 475 39,000  Level Washington Center
Tue 03:55:31 PM 38.3958 -78.0714 347° North 413 475 39,000  Level Washington Center
Tue 03:56:31 PM 38.5161 -78.1072 347° North 413 475 39,000  Level Washington Center
Tue 03:57:31 PM 38.6175 -78.1372 347° North 408 470 39,000  Level Washington Center
Tue 03:58:31 PM 38.7397 -78.1733 347° North 414 476 39,000  Level Washington Center
Tue 03:59:31 PM 38.8494 -78.2067 347° North 409 471 39,000  Level Washington Center
Tue 04:00:31 PM 38.9556 -78.2183 355° North 414 476 39,000  Level Washington Center
Tue 04:01:31 PM 39.0803 -78.2308 356° North 409 471 39,000  Level Washington Center
Tue 04:03:21 PM 39.2803 -78.2528 355° North 419 482 39,000  Level Cleveland Center
Tue 04:04:21 PM 39.3953 -78.2622 356° North 424 488 39,000  Level Cleveland Center
Tue 04:05:21 PM 39.5142 -78.2772 354° North 424 488 39,000  Level Cleveland Center
Tue 04:06:21 PM 39.6292 -78.2867 356° North 424 488 39,000 -50 Level Cleveland Center
Tue 04:07:21 PM 39.7628 -78.3011 355° North 424 488 38,900 -550 Descending Cleveland Center
Tue 04:08:21 PM 39.8797 -78.3133 355° North 424 488 37,900 -950 Descending Cleveland Center
Tue 04:09:21 PM 40.0031 -78.3281 355° North 424 488 37,000 -450 Descending Cleveland Center
Tue 04:10:21 PM 40.1264 -78.3375 357° North 430 495 37,000  Level Cleveland Center
Tue 04:11:21 PM 40.2433 -78.3528 354° North 430 495 37,000 -300 Level Cleveland Center
Tue 04:12:21 PM 40.3603 -78.3650 355° North 425 489 36,400 -1,700 Descending Cleveland Center
Tue 04:13:21 PM 40.4794 -78.3775 355° North 425 489 33,600 -2,650 Descending Cleveland Center
Tue 04:14:21 PM 40.5944 -78.3900 355° North 425 489 31,100 -1,550 Descending Cleveland Center
Tue 04:15:21 PM 40.7072 -78.4000 356° North 420 483 30,500 -850 Descending Cleveland Center
Tue 04:16:21 PM 40.8158 -78.4131 355° North 409 471 29,400 -1,000 Descending Cleveland Center
Tue 04:17:21 PM 40.9244 -78.4258 355° North 402 463 28,500 -950 Descending Cleveland Center
Tue 04:18:21 PM 41.0289 -78.4361 356° North 388 447 27,500 -1,000 Descending Cleveland Center
Tue 04:19:21 PM 41.1311 -78.4467 356° North 370 426 26,500 -750 Descending Cleveland Center
Tue 04:20:21 PM 41.2314 -78.4572 355° North 365 420 26,000 -250 Descending Cleveland Center
Tue 04:21:21 PM 41.3361 -78.4703 355° North 365 420 26,000  Level Cleveland Center
Tue 04:22:21 PM 41.4258 -78.4783 356° North 371 427 26,000 -400 Level Cleveland Center
Tue 04:23:21 PM 41.5303 -78.4889 356° North 371 427 25,200 -900 Descending Cleveland Center
Tue 04:24:21 PM 41.6264 -78.4997 355° North 365 420 24,200 -1,000 Descending Cleveland Center
Tue 04:25:21 PM 41.7267 -78.5103 356° North 365 420 23,200 -1,000 Descending Cleveland Center
Tue 04:26:21 PM 41.8247 -78.5239 354° North 359 413 22,200 -1,250 Descending Cleveland Center
Tue 04:27:21 PM 41.9208 -78.5347 355° North 354 407 20,700 -1,750 Descending Cleveland Center
Tue 04:28:21 PM 42.0253 -78.5428 357° North 342 394 18,700 -1,850 Descending Cleveland Center
Tue 04:29:21 PM 42.1131 -78.5539 355° North 335 386 17,000 -1,600 Descending Cleveland Center
Tue 04:30:21 PM 42.1986 -78.5653 354° North 335 386 15,500 -1,600 Descending Cleveland Center
Tue 04:31:21 PM 42.2906 -78.5733 356° North 335 386 13,800 -1,800 Descending Cleveland Center
Tue 04:32:21 PM 42.3825 -78.5847 355° North 335 386 11,900 -1,400 Descending Cleveland Center
Tue 04:33:21 PM 42.4722 -78.5931 356° North 335 386 11,000 -450 Descending Cleveland Center
Tue 04:34:21 PM 42.5558 -78.5989 357° North 321 369 11,000 -100 Level Cleveland Center
Tue 04:35:21 PM 42.6431 -78.5819 North 310 357 10,800 -800 Descending Cleveland Center
Tue 04:36:21 PM 42.7303 -78.5650 North 310 357 9,400 -1,653 Descending Cleveland Center
Tue 04:38:08 PM 42.8667 -78.4667 28° Northeast 296 341 6,200 -1,581 Descending Buffalo TRACON
Tue 04:39:08 PM 42.9500 -78.4833 352° North 258 297 5,000 -600 Descending Buffalo TRACON
Tue 04:40:08 PM 43.0000 -78.5000 346° North 200 230 5,000 -500 Level Buffalo TRACON
Tue 04:41:08 PM 43.0333 -78.5500 312° West 175 201 4,000 -1,000 Descending Buffalo TRACON
Tue 04:42:08 PM 43.0333 -78.6000 270° West 134 154 3,000 -800 Descending Buffalo TRACON
Tue 04:43:08 PM 43.0000 -78.6333 216° Southwest 130 150 2,400 -650 Descending Buffalo TRACON
Tue 04:44:08 PM 42.9833 -78.6667 236° Southwest 134 154 1,700 -700 Descending Buffalo TRACON

Login

Don't have an account? Register now (free) for customized features, flight alerts, and more!